createdAt,value
2022-12-14T00:02:04.084Z,1003.24
2022-12-14T00:07:11.267Z,1003.27
2022-12-14T00:12:18.428Z,1003.20
2022-12-14T00:17:25.611Z,1003.01
2022-12-14T00:22:32.893Z,1003.07
2022-12-14T00:27:40.144Z,1003.13
2022-12-14T00:32:47.306Z,1003.02
2022-12-14T00:37:54.464Z,1002.93
2022-12-14T00:43:01.718Z,1002.94
2022-12-14T00:48:08.874Z,1002.87
2022-12-14T00:53:16.105Z,1002.83
2022-12-14T00:58:23.361Z,1002.78
2022-12-14T01:03:31.167Z,1002.72
2022-12-14T01:08:37.792Z,1002.78
2022-12-14T01:13:45.023Z,1002.82
2022-12-14T01:18:52.222Z,1002.75
2022-12-14T01:23:59.403Z,1002.74
2022-12-14T01:29:09.055Z,1002.76
2022-12-14T01:34:14.624Z,1002.71
2022-12-14T01:39:21.804Z,1002.71
2022-12-14T01:44:29.187Z,1002.55
2022-12-14T01:49:36.204Z,1002.56
2022-12-14T01:54:43.371Z,1002.65
2022-12-14T01:59:50.589Z,1002.65
2022-12-14T02:04:57.809Z,1002.55
2022-12-14T02:10:05.072Z,1002.53
2022-12-14T02:15:12.341Z,1002.45
2022-12-14T02:20:19.491Z,1002.37
2022-12-14T02:25:26.713Z,1002.41
2022-12-14T02:30:33.916Z,1002.22
2022-12-14T02:35:41.127Z,1002.19
2022-12-14T02:40:48.331Z,1002.10
2022-12-14T02:45:55.586Z,1002.06
2022-12-14T02:51:02.746Z,1002.11
2022-12-14T02:56:09.886Z,1002.09
2022-12-14T03:01:17.227Z,1002.06
2022-12-14T03:06:24.252Z,1001.99
2022-12-14T03:11:31.467Z,1001.96
2022-12-14T03:16:38.809Z,1001.94
2022-12-14T03:21:45.932Z,1001.88
2022-12-14T03:26:53.190Z,1001.83
2022-12-14T03:32:00.495Z,1001.74
2022-12-14T03:37:07.586Z,1001.80
2022-12-14T03:42:14.790Z,1001.64
2022-12-14T03:47:22.046Z,1001.53
2022-12-14T03:52:29.189Z,1001.26
2022-12-14T03:57:36.401Z,1001.28
2022-12-14T04:02:43.812Z,1001.25
2022-12-14T04:07:50.826Z,1001.09
2022-12-14T04:12:58.020Z,1001.10
2022-12-14T04:18:05.271Z,1001.11
2022-12-14T04:23:12.438Z,1001.13
2022-12-14T04:28:19.603Z,1000.93
2022-12-14T04:33:27.327Z,1000.97
2022-12-14T04:38:34.036Z,1000.77
2022-12-14T04:43:41.236Z,1000.74
2022-12-14T04:48:48.465Z,1000.60
2022-12-14T04:53:55.674Z,1000.56
2022-12-14T04:59:02.875Z,1000.50
2022-12-14T05:04:12.722Z,1000.40
2022-12-14T05:09:17.260Z,1000.46
2022-12-14T05:14:24.434Z,1000.49
2022-12-14T05:19:31.699Z,1000.54
2022-12-14T05:24:38.807Z,1000.51
2022-12-14T05:29:45.964Z,1000.55
2022-12-14T05:34:53.179Z,1000.51
2022-12-14T05:40:00.386Z,1000.47
2022-12-14T05:45:07.594Z,1000.57
2022-12-14T05:50:14.805Z,1000.36
2022-12-14T05:55:21.964Z,1000.35
2022-12-14T06:00:29.211Z,1000.26
2022-12-14T06:05:36.451Z,1000.20
2022-12-14T06:10:43.592Z,1000.05
2022-12-14T06:15:50.930Z,1000.08
2022-12-14T06:20:58.102Z,1000.08
2022-12-14T06:26:05.299Z,1000.01
2022-12-14T06:31:12.595Z,1000.00
2022-12-14T06:36:19.662Z,999.91
2022-12-14T06:41:26.911Z,999.90
2022-12-14T06:46:34.165Z,999.84
2022-12-14T06:51:41.398Z,999.79
2022-12-14T06:56:48.552Z,999.85
2022-12-14T07:01:55.849Z,999.74
2022-12-14T07:07:02.943Z,999.60
2022-12-14T07:12:10.134Z,999.51
2022-12-14T07:17:17.383Z,999.28
2022-12-14T07:22:24.547Z,999.26
2022-12-14T07:27:31.684Z,999.42
2022-12-14T07:32:38.922Z,999.36
2022-12-14T07:37:49.226Z,999.18
2022-12-14T07:42:53.382Z,999.16
2022-12-14T07:48:00.540Z,999.19
2022-12-14T07:53:07.734Z,999.10
2022-12-14T07:58:14.866Z,998.93
2022-12-14T08:03:22.116Z,998.89
2022-12-14T08:08:29.284Z,998.93
2022-12-14T08:13:36.499Z,999.07
2022-12-14T08:18:43.733Z,999.09
2022-12-14T08:23:50.958Z,999.15
2022-12-14T08:28:58.158Z,999.20
2022-12-14T08:34:05.378Z,999.00
2022-12-14T08:39:12.652Z,999.00
2022-12-14T08:44:19.755Z,998.77
2022-12-14T08:49:32.081Z,998.69
2022-12-14T08:54:34.136Z,998.63
2022-12-14T09:00:02.266Z,998.74
2022-12-14T09:04:48.580Z,998.75
2022-12-14T09:09:55.850Z,998.68
2022-12-14T09:15:03.135Z,998.73
2022-12-14T09:20:10.316Z,998.56
2022-12-14T09:25:17.501Z,998.70
2022-12-14T09:30:26.747Z,998.70
2022-12-14T09:35:32.046Z,998.79
2022-12-14T09:40:39.359Z,998.86
2022-12-14T09:45:46.596Z,998.90
2022-12-14T09:50:53.816Z,998.88
2022-12-14T09:56:00.956Z,998.80
2022-12-14T10:01:08.171Z,998.81
2022-12-14T10:06:15.322Z,998.67
2022-12-14T10:11:22.548Z,998.80
2022-12-14T10:16:29.773Z,998.77
2022-12-14T10:21:36.914Z,998.93
2022-12-14T10:26:44.164Z,999.14
2022-12-14T10:31:51.451Z,999.10
2022-12-14T10:37:01.359Z,999.08
2022-12-14T10:42:08.524Z,998.83
2022-12-14T10:47:15.684Z,998.90
2022-12-14T10:52:22.863Z,999.03
2022-12-14T10:57:30.055Z,998.91
2022-12-14T11:02:37.358Z,998.97
2022-12-14T11:07:44.445Z,999.12
2022-12-14T11:12:51.600Z,998.96
2022-12-14T11:17:59.141Z,998.62
2022-12-14T11:23:06.258Z,998.58
2022-12-14T11:28:13.471Z,998.56
2022-12-14T11:33:20.686Z,998.32
2022-12-14T11:38:28.283Z,998.27
2022-12-14T11:43:35.153Z,998.30
2022-12-14T11:48:42.425Z,998.26
2022-12-14T11:53:49.738Z,998.14
2022-12-14T11:58:56.941Z,998.05
2022-12-14T12:04:04.230Z,998.06
2022-12-14T12:09:11.343Z,998.01
2022-12-14T12:14:18.538Z,998.15
2022-12-14T12:19:25.732Z,998.16
2022-12-14T12:24:32.928Z,998.12
2022-12-14T12:29:40.203Z,998.15
2022-12-14T12:34:47.374Z,998.04
2022-12-14T12:39:54.643Z,998.02
2022-12-14T12:45:01.797Z,997.87
2022-12-14T12:50:09.181Z,998.20
2022-12-14T12:55:16.417Z,998.21
2022-12-14T13:00:23.598Z,998.20
2022-12-14T13:05:48.186Z,998.40
2022-12-14T13:10:41.998Z,998.36
2022-12-14T13:15:45.297Z,998.44
2022-12-14T13:20:52.425Z,998.34
2022-12-14T13:25:59.624Z,998.32
2022-12-14T13:31:06.917Z,998.55
2022-12-14T13:36:14.010Z,998.61
2022-12-14T13:41:21.218Z,998.56
2022-12-14T13:46:28.488Z,998.77
2022-12-14T13:51:35.609Z,998.78
2022-12-14T13:56:42.866Z,998.87
2022-12-14T14:01:50.230Z,998.92
2022-12-14T14:06:57.326Z,999.20
2022-12-14T14:12:04.523Z,998.91
2022-12-14T14:17:11.862Z,998.98
2022-12-14T14:22:23.689Z,999.01
2022-12-14T14:27:26.329Z,999.28
2022-12-14T14:32:33.516Z,999.24
2022-12-14T14:37:40.705Z,999.51
2022-12-14T14:42:47.942Z,999.41
2022-12-14T14:47:55.193Z,999.47
2022-12-14T14:53:02.408Z,999.45
2022-12-14T14:58:09.622Z,999.62
2022-12-14T15:03:17.155Z,999.81
2022-12-14T15:08:24.089Z,999.75
2022-12-14T15:13:31.684Z,999.93
2022-12-14T15:18:38.567Z,999.86
2022-12-14T15:23:49.287Z,1000.08
2022-12-14T15:28:52.936Z,1000.15
2022-12-14T15:34:00.168Z,1000.11
2022-12-14T15:39:07.345Z,1000.30
2022-12-14T15:44:14.552Z,1000.23
2022-12-14T15:49:21.754Z,1000.23
2022-12-14T15:54:28.893Z,1000.28
2022-12-14T15:59:36.100Z,1000.41
2022-12-14T16:04:43.302Z,1000.23
2022-12-14T16:09:51.096Z,1000.27
2022-12-14T16:14:57.666Z,1000.36
2022-12-14T16:20:04.915Z,1000.16
2022-12-14T16:25:12.068Z,1000.29
2022-12-14T16:30:19.284Z,1000.34
2022-12-14T16:35:26.525Z,1000.31
2022-12-14T16:40:33.677Z,1000.36
2022-12-14T16:45:41.287Z,1000.49
2022-12-14T16:50:57.374Z,1000.43
2022-12-14T16:55:56.031Z,1000.41
2022-12-14T17:01:04.119Z,1000.33
2022-12-14T17:06:11.184Z,1000.51
2022-12-14T17:11:18.382Z,1000.54
2022-12-14T17:16:25.680Z,1000.59
2022-12-14T17:21:33.087Z,1000.54
2022-12-14T17:26:40.405Z,1000.78
2022-12-14T17:31:47.881Z,1000.62
2022-12-14T17:36:55.630Z,1000.65
2022-12-14T17:42:03.214Z,1000.74
2022-12-14T17:47:10.633Z,1000.44
2022-12-14T17:52:18.262Z,1000.47
2022-12-14T17:57:27.076Z,1000.46
2022-12-14T18:02:34.664Z,1000.66
2022-12-14T18:07:41.924Z,1000.80
2022-12-14T18:12:49.509Z,1000.74
2022-12-14T18:17:57.543Z,1000.57
2022-12-14T18:23:05.182Z,1000.75
2022-12-14T18:28:12.771Z,1000.52
2022-12-14T18:33:20.381Z,1000.70
2022-12-14T18:38:28.020Z,1000.72
2022-12-14T18:43:40.212Z,1000.87
2022-12-14T18:48:43.228Z,1000.94
2022-12-14T18:53:50.965Z,1000.83
2022-12-14T18:58:58.657Z,1000.79
2022-12-14T19:04:06.296Z,1000.77
2022-12-14T19:09:13.841Z,1000.81
2022-12-14T19:14:21.037Z,1000.75
2022-12-14T19:19:35.628Z,1000.78
2022-12-14T19:24:36.164Z,1000.72
2022-12-14T19:29:43.727Z,1000.63
2022-12-14T19:34:51.338Z,1000.77
2022-12-14T19:39:58.983Z,1000.56
2022-12-14T19:45:06.582Z,1000.70
2022-12-14T19:50:14.077Z,1000.72
2022-12-14T19:55:21.825Z,1000.79
2022-12-14T20:00:29.411Z,1000.79
2022-12-14T20:05:37.001Z,1001.00
2022-12-14T20:10:44.774Z,1001.03
2022-12-14T20:15:52.441Z,1001.02
2022-12-14T20:20:59.979Z,1001.05
2022-12-14T20:26:07.617Z,1001.09
2022-12-14T20:31:15.276Z,1001.10
2022-12-14T20:36:23.422Z,1001.18
2022-12-14T20:41:30.875Z,1001.20
2022-12-14T20:46:38.575Z,1001.09
2022-12-14T20:51:46.167Z,1001.16
2022-12-14T20:56:53.917Z,1001.28
2022-12-14T21:02:01.812Z,1001.27
2022-12-14T21:07:08.814Z,1001.27
2022-12-14T21:12:16.247Z,1001.17
2022-12-14T21:17:23.540Z,1001.25
2022-12-14T21:22:31.039Z,1001.30
2022-12-14T21:27:38.816Z,1001.25
2022-12-14T21:32:46.007Z,1001.17
2022-12-14T21:37:53.169Z,1001.09
2022-12-14T21:43:00.499Z,1001.21
2022-12-14T21:48:07.682Z,1001.19
2022-12-14T21:53:14.839Z,1001.17
2022-12-14T21:58:22.009Z,1001.29
2022-12-14T22:03:29.627Z,1001.22
2022-12-14T22:08:36.455Z,1001.20
2022-12-14T22:13:43.743Z,1001.13
2022-12-14T22:18:50.926Z,1001.48
2022-12-14T22:23:58.133Z,1001.55
2022-12-14T22:29:05.428Z,1001.69
2022-12-14T22:34:12.576Z,1001.76
2022-12-14T22:39:19.747Z,1001.80
2022-12-14T22:44:26.900Z,1001.68
2022-12-14T22:49:34.118Z,1001.69
2022-12-14T22:54:41.336Z,1001.53
2022-12-14T22:59:48.521Z,1001.38
2022-12-14T23:04:55.708Z,1001.61
2022-12-14T23:10:02.954Z,1001.42
2022-12-14T23:15:10.181Z,1001.29
2022-12-14T23:20:17.353Z,1001.27
2022-12-14T23:25:24.567Z,1001.25
2022-12-14T23:30:31.866Z,1001.03
2022-12-14T23:35:38.916Z,1001.29
2022-12-14T23:40:46.119Z,1001.08
2022-12-14T23:45:53.371Z,1001.08
2022-12-14T23:51:00.492Z,1001.09
2022-12-14T23:56:07.692Z,1001.24
